createdAt,value
2018-05-18T00:01:43.916Z,68.33
2018-05-18T00:04:10.169Z,75.83
2018-05-18T00:06:36.404Z,85.20
2018-05-18T00:09:02.691Z,65.53
2018-05-18T00:11:28.914Z,75.63
2018-05-18T00:13:55.144Z,78.20
2018-05-18T00:16:21.386Z,79.33
2018-05-18T00:18:47.646Z,72.67
2018-05-18T00:21:13.885Z,78.80
2018-05-18T00:23:40.126Z,82.70
2018-05-18T00:26:06.370Z,71.73
2018-05-18T00:28:32.824Z,74.07
2018-05-18T00:30:59.779Z,72.83
2018-05-18T00:33:26.016Z,80.70
2018-05-18T00:35:53.006Z,74.33
2018-05-18T00:38:19.226Z,78.30
2018-05-18T00:40:46.239Z,81.57
2018-05-18T00:43:12.457Z,71.00
2018-05-18T00:45:38.679Z,70.60
2018-05-18T00:48:04.937Z,71.03
2018-05-18T00:50:31.149Z,77.00
2018-05-18T00:53:05.043Z,74.03
2018-05-18T00:55:39.253Z,69.70
2018-05-18T00:58:05.492Z,83.03
2018-05-18T01:00:31.723Z,74.03
2018-05-18T01:02:57.957Z,76.10
2018-05-18T01:05:24.161Z,73.83
2018-05-18T01:07:51.114Z,82.00
2018-05-18T01:10:18.101Z,78.60
2018-05-18T01:12:44.322Z,81.53
2018-05-18T01:15:11.305Z,71.87
2018-05-18T01:17:37.528Z,70.10
2018-05-18T01:20:03.797Z,111.10
2018-05-18T01:22:30.060Z,77.03
2018-05-18T01:24:56.304Z,85.30
2018-05-18T01:27:22.545Z,86.53
2018-05-18T01:29:49.101Z,81.53
2018-05-18T01:32:15.348Z,80.07
2018-05-18T01:34:41.575Z,78.20
2018-05-18T01:37:07.792Z,86.50
2018-05-18T01:39:34.039Z,93.47
2018-05-18T01:42:00.273Z,90.10
2018-05-18T01:44:26.488Z,83.90
2018-05-18T01:46:52.730Z,100.07
2018-05-18T01:49:18.939Z,79.73
2018-05-18T01:51:45.928Z,80.27
2018-05-18T01:54:12.160Z,82.27
2018-05-18T01:56:38.376Z,88.97
2018-05-18T01:59:05.350Z,76.67
2018-05-18T02:01:32.342Z,70.67
2018-05-18T02:03:58.583Z,72.30
2018-05-18T02:06:24.795Z,95.27
2018-05-18T02:08:51.016Z,82.57
2018-05-18T02:11:17.976Z,84.13
2018-05-18T02:13:44.936Z,81.50
2018-05-18T02:16:11.912Z,81.20
2018-05-18T02:18:38.141Z,79.67
2018-05-18T02:21:05.117Z,76.83
2018-05-18T02:23:31.387Z,84.87
2018-05-18T02:25:57.606Z,81.03
2018-05-18T02:28:23.826Z,85.43
2018-05-18T02:30:50.922Z,81.83
2018-05-18T02:33:17.888Z,74.80
2018-05-18T02:35:44.114Z,76.33
2018-05-18T02:38:10.338Z,80.97
2018-05-18T02:40:36.556Z,77.77
2018-05-18T02:43:03.525Z,86.27
2018-05-18T02:45:29.786Z,88.47
2018-05-18T02:47:56.006Z,77.70
2018-05-18T02:50:22.254Z,62.27
2018-05-18T02:52:48.504Z,81.77
2018-05-18T02:55:14.736Z,73.27
2018-05-18T02:57:40.955Z,65.80
2018-05-18T03:00:07.934Z,72.83
2018-05-18T03:02:34.149Z,80.60
2018-05-18T03:05:01.109Z,69.70
2018-05-18T03:07:28.110Z,65.30
2018-05-18T03:09:54.339Z,53.30
2018-05-18T03:12:20.588Z,69.20
2018-05-18T03:14:46.835Z,71.63
2018-05-18T03:17:13.047Z,78.07
2018-05-18T03:19:39.273Z,68.63
2018-05-18T03:22:06.305Z,57.57
2018-05-18T03:24:32.531Z,65.50
2018-05-18T03:27:01.665Z,66.40
2018-05-18T03:29:28.645Z,84.13
2018-05-18T03:31:55.715Z,62.53
2018-05-18T03:34:21.975Z,71.63
2018-05-18T03:36:48.216Z,62.73
2018-05-18T03:39:14.448Z,67.67
2018-05-18T03:41:40.675Z,69.63
2018-05-18T03:44:06.918Z,72.17
2018-05-18T03:46:33.160Z,64.17
2018-05-18T03:48:59.373Z,64.87
2018-05-18T03:51:26.361Z,77.67
2018-05-18T03:53:52.587Z,61.67
2018-05-18T03:56:19.552Z,55.53
2018-05-18T03:58:45.780Z,57.40
2018-05-18T04:01:18.666Z,56.60
2018-05-18T04:03:57.103Z,56.90
2018-05-18T04:06:36.120Z,69.33
2018-05-18T04:09:02.420Z,64.00
2018-05-18T04:11:28.630Z,63.20
2018-05-18T04:13:55.720Z,60.03
2018-05-18T04:16:21.960Z,58.60
2018-05-18T04:18:48.194Z,58.20
2018-05-18T04:21:14.460Z,61.83
2018-05-18T04:23:40.710Z,62.43
2018-05-18T04:26:07.682Z,65.93
2018-05-18T04:28:33.921Z,61.33
2018-05-18T04:31:00.198Z,50.60
2018-05-18T04:33:27.173Z,66.70
2018-05-18T04:35:53.518Z,54.07
2018-05-18T04:38:19.746Z,61.10
2018-05-18T04:40:45.974Z,58.30
2018-05-18T04:43:12.976Z,57.37
2018-05-18T04:45:39.214Z,60.67
2018-05-18T04:48:05.430Z,53.07
2018-05-18T04:50:31.679Z,53.57
2018-05-18T04:52:57.911Z,59.13
2018-05-18T04:55:24.140Z,58.30
2018-05-18T04:57:51.091Z,64.57
2018-05-18T05:00:18.100Z,65.80
2018-05-18T05:02:44.331Z,65.67
2018-05-18T05:05:10.579Z,65.83
2018-05-18T05:07:37.004Z,59.03
2018-05-18T05:10:03.252Z,63.93
2018-05-18T05:12:29.551Z,64.20
2018-05-18T05:14:55.787Z,73.27
2018-05-18T05:17:22.761Z,56.77
2018-05-18T05:19:49.711Z,68.47
2018-05-18T05:22:16.024Z,76.53
2018-05-18T05:24:42.248Z,69.57
2018-05-18T05:27:08.485Z,71.90
2018-05-18T05:29:34.733Z,67.47
2018-05-18T05:32:01.415Z,71.33
2018-05-18T05:34:27.655Z,66.57
2018-05-18T05:36:54.653Z,78.47
2018-05-18T05:39:20.989Z,73.10
2018-05-18T05:41:47.249Z,74.33
2018-05-18T05:44:13.508Z,66.07
2018-05-18T05:46:39.747Z,75.67
2018-05-18T05:49:05.970Z,76.13
2018-05-18T05:51:32.213Z,65.50
2018-05-18T05:53:58.441Z,67.90
2018-05-18T05:56:24.665Z,75.97
2018-05-18T05:58:50.922Z,75.13
2018-05-18T06:01:17.153Z,80.60
2018-05-18T06:03:43.386Z,84.53
2018-05-18T06:06:09.649Z,80.50
2018-05-18T06:08:35.861Z,72.67
2018-05-18T06:11:02.089Z,68.80
2018-05-18T06:13:29.104Z,72.23
2018-05-18T06:15:55.343Z,79.50
2018-05-18T06:18:21.558Z,79.60
2018-05-18T06:20:48.055Z,63.53
2018-05-18T06:23:14.410Z,75.87
2018-05-18T06:25:40.626Z,62.50
2018-05-18T06:28:06.891Z,64.07
2018-05-18T06:30:33.867Z,63.40
2018-05-18T06:33:00.996Z,67.60
2018-05-18T06:35:27.455Z,65.23
2018-05-18T06:37:53.703Z,58.57
2018-05-18T06:40:20.662Z,58.03
2018-05-18T06:42:46.902Z,57.57
2018-05-18T06:45:13.872Z,76.27
2018-05-18T06:47:40.101Z,61.03
2018-05-18T06:50:07.115Z,83.10
2018-05-18T06:52:33.365Z,62.33
2018-05-18T06:54:59.559Z,62.37
2018-05-18T06:57:25.798Z,72.20
2018-05-18T06:59:52.016Z,80.73
2018-05-18T07:02:19.008Z,66.87
2018-05-18T07:04:45.244Z,61.90
2018-05-18T07:07:11.448Z,61.43
2018-05-18T07:09:37.675Z,70.17
2018-05-18T07:12:03.929Z,60.10
2018-05-18T07:14:30.164Z,62.70
2018-05-18T07:16:56.374Z,63.97
2018-05-18T07:19:22.625Z,62.60
2018-05-18T07:21:48.864Z,65.70
2018-05-18T07:24:15.081Z,58.20
2018-05-18T07:26:41.314Z,73.00
2018-05-18T07:29:07.542Z,57.07
2018-05-18T07:31:33.780Z,65.60
2018-05-18T07:34:00.164Z,58.43
2018-05-18T07:36:26.390Z,64.20
2018-05-18T07:38:52.606Z,60.77
2018-05-18T07:41:18.838Z,65.97
2018-05-18T07:43:45.143Z,72.03
2018-05-18T07:46:11.282Z,66.67
2018-05-18T07:48:37.540Z,58.97
2018-05-18T07:51:04.518Z,76.17
2018-05-18T07:53:31.573Z,62.30
2018-05-18T07:55:57.697Z,62.00
2018-05-18T07:58:23.933Z,69.83
2018-05-18T08:00:50.163Z,59.50
2018-05-18T08:03:16.387Z,62.07
2018-05-18T08:05:42.637Z,57.47
2018-05-18T08:08:08.839Z,71.13
2018-05-18T08:10:35.073Z,60.00
2018-05-18T08:13:01.291Z,58.33
2018-05-18T08:15:28.876Z,65.00
2018-05-18T08:17:55.865Z,58.77
2018-05-18T08:20:22.081Z,68.57
2018-05-18T08:22:48.315Z,63.23
2018-05-18T08:25:14.604Z,55.27
2018-05-18T08:27:40.926Z,55.00
2018-05-18T08:30:07.106Z,57.17
2018-05-18T08:32:33.378Z,48.83
2018-05-18T08:34:59.628Z,62.07
2018-05-18T08:37:25.836Z,59.33
2018-05-18T08:39:52.088Z,55.70
2018-05-18T08:42:19.054Z,54.37
2018-05-18T08:44:45.292Z,55.27
2018-05-18T08:47:12.254Z,50.60
2018-05-18T08:49:38.469Z,48.70
2018-05-18T08:52:04.689Z,39.93
2018-05-18T08:54:30.922Z,53.03
2018-05-18T08:56:57.142Z,43.90
2018-05-18T08:59:23.357Z,49.50
2018-05-18T09:01:50.411Z,44.17
2018-05-18T09:04:16.622Z,40.10
2018-05-18T09:06:42.852Z,67.77
2018-05-18T09:09:09.081Z,44.77
2018-05-18T09:11:35.309Z,49.37
2018-05-18T09:14:01.585Z,39.97
2018-05-18T09:16:27.947Z,45.50
2018-05-18T09:18:54.234Z,43.00
2018-05-18T09:21:20.528Z,37.87
2018-05-18T09:23:47.612Z,42.07
2018-05-18T09:26:13.906Z,43.60
2018-05-18T09:28:40.184Z,46.57
2018-05-18T09:31:06.494Z,38.20
2018-05-18T09:33:32.744Z,48.77
2018-05-18T09:35:58.992Z,52.37
2018-05-18T09:38:25.270Z,43.10
2018-05-18T09:40:51.494Z,50.87
2018-05-18T09:43:18.458Z,96.80
2018-05-18T09:45:44.706Z,69.00
2018-05-18T09:48:10.913Z,36.80
2018-05-18T09:50:37.114Z,39.13
2018-05-18T09:53:03.348Z,35.30
2018-05-18T09:55:29.866Z,53.23
2018-05-18T09:57:55.842Z,44.57
2018-05-18T10:00:22.074Z,37.73
2018-05-18T10:02:48.304Z,41.47
2018-05-18T10:05:14.513Z,42.90
2018-05-18T10:07:40.778Z,37.33
2018-05-18T10:10:07.010Z,39.30
2018-05-18T10:12:33.209Z,32.37
2018-05-18T10:14:59.437Z,39.10
2018-05-18T10:17:25.654Z,33.47
2018-05-18T10:19:51.866Z,34.80
2018-05-18T10:22:18.120Z,32.03
2018-05-18T10:24:44.354Z,32.60
2018-05-18T10:27:10.590Z,35.63
2018-05-18T10:29:36.847Z,28.93
2018-05-18T10:32:03.093Z,34.93
2018-05-18T10:34:29.322Z,33.67
2018-05-18T10:36:55.573Z,41.20
2018-05-18T10:39:21.794Z,33.90
2018-05-18T10:41:48.031Z,33.40
2018-05-18T10:44:14.310Z,38.30
2018-05-18T10:46:40.571Z,40.43
2018-05-18T10:49:06.819Z,38.13
2018-05-18T10:51:33.050Z,31.43
2018-05-18T10:53:59.279Z,39.60
2018-05-18T10:56:25.494Z,43.63
2018-05-18T10:58:51.721Z,40.90
2018-05-18T11:01:17.969Z,34.03
2018-05-18T11:03:44.222Z,41.13
2018-05-18T11:06:10.476Z,42.37
2018-05-18T11:08:36.701Z,37.90
2018-05-18T11:11:02.914Z,37.90
2018-05-18T11:13:29.158Z,27.73
2018-05-18T11:15:55.354Z,32.37
2018-05-18T11:18:21.565Z,25.20
2018-05-18T11:20:47.810Z,25.67
2018-05-18T11:23:14.064Z,24.40
2018-05-18T11:25:40.282Z,26.67
2018-05-18T11:28:06.494Z,38.93
2018-05-18T11:30:32.704Z,27.87
2018-05-18T11:32:59.047Z,21.47
2018-05-18T11:35:25.305Z,31.00
2018-05-18T11:37:51.558Z,31.80
2018-05-18T11:40:17.793Z,32.53
2018-05-18T11:42:44.117Z,37.33
2018-05-18T11:45:11.105Z,38.60
2018-05-18T11:47:37.366Z,26.63
2018-05-18T11:50:04.394Z,34.20
2018-05-18T11:52:30.628Z,32.00
2018-05-18T11:54:57.598Z,30.77
2018-05-18T11:57:23.847Z,26.30
2018-05-18T11:59:50.066Z,29.70
2018-05-18T12:02:16.264Z,33.87
2018-05-18T12:04:42.515Z,31.87
2018-05-18T12:07:08.733Z,33.37
2018-05-18T12:09:34.973Z,31.67
2018-05-18T12:12:01.211Z,32.67
2018-05-18T12:14:27.450Z,26.43
2018-05-18T12:16:53.678Z,31.83
2018-05-18T12:19:19.956Z,35.07
2018-05-18T12:21:46.196Z,35.37
2018-05-18T12:24:12.432Z,32.70
2018-05-18T12:26:38.670Z,29.47
2018-05-18T12:29:04.929Z,33.63
2018-05-18T12:31:31.176Z,29.20
2018-05-18T12:33:57.512Z,28.83
2018-05-18T12:36:23.754Z,29.63
2018-05-18T12:38:49.987Z,27.00
2018-05-18T12:41:16.214Z,25.27
2018-05-18T12:43:42.443Z,22.60
2018-05-18T12:46:08.662Z,22.63
2018-05-18T12:48:34.934Z,22.43
2018-05-18T12:51:01.340Z,24.63
2018-05-18T12:53:27.573Z,28.07
2018-05-18T12:55:53.847Z,35.70
2018-05-18T12:58:20.091Z,30.70
2018-05-18T13:00:46.293Z,24.40
2018-05-18T13:03:12.564Z,27.77
2018-05-18T13:05:38.798Z,30.87
2018-05-18T13:08:05.030Z,22.87
2018-05-18T13:10:31.637Z,29.47
2018-05-18T13:12:57.859Z,21.20
2018-05-18T13:15:24.085Z,27.83
2018-05-18T13:17:50.347Z,27.70
2018-05-18T13:20:16.608Z,27.50
2018-05-18T13:22:43.582Z,27.77
2018-05-18T13:25:09.892Z,22.80
2018-05-18T13:27:36.124Z,24.47
2018-05-18T13:30:02.360Z,21.03
2018-05-18T13:32:28.637Z,26.37
2018-05-18T13:34:54.871Z,30.03
2018-05-18T13:37:21.854Z,26.50
2018-05-18T13:39:48.141Z,28.70
2018-05-18T13:42:14.369Z,35.87
2018-05-18T13:44:40.609Z,33.93
2018-05-18T13:47:06.869Z,30.23
2018-05-18T13:49:33.095Z,25.00
2018-05-18T13:51:59.330Z,27.67
2018-05-18T13:54:25.575Z,27.00
2018-05-18T13:56:51.792Z,25.30
2018-05-18T13:59:18.014Z,25.63
2018-05-18T14:01:44.270Z,22.43
2018-05-18T14:04:10.500Z,25.07
2018-05-18T14:06:36.742Z,36.53
2018-05-18T14:09:03.064Z,23.07
2018-05-18T14:11:29.277Z,23.57
2018-05-18T14:13:55.540Z,25.90
2018-05-18T14:16:21.776Z,22.37
2018-05-18T14:18:47.983Z,26.30
2018-05-18T14:21:14.199Z,23.03
2018-05-18T14:23:40.456Z,17.77
2018-05-18T14:26:06.705Z,25.13
2018-05-18T14:28:32.945Z,19.13
2018-05-18T14:30:59.949Z,24.93
2018-05-18T14:33:26.982Z,17.97
2018-05-18T14:35:53.205Z,24.53
2018-05-18T14:38:19.480Z,29.03
2018-05-18T14:40:46.446Z,34.63
2018-05-18T14:43:13.425Z,18.73
2018-05-18T14:45:39.670Z,27.83
2018-05-18T14:48:05.888Z,25.43
2018-05-18T14:50:32.885Z,25.93
2018-05-18T14:52:59.175Z,26.43
2018-05-18T14:55:26.157Z,22.37
2018-05-18T14:57:52.397Z,23.90
2018-05-18T15:00:18.663Z,21.57
2018-05-18T15:02:44.904Z,27.83
2018-05-18T15:05:11.175Z,19.90
2018-05-18T15:07:37.522Z,24.73
2018-05-18T15:10:03.775Z,25.47
2018-05-18T15:12:29.993Z,23.30
2018-05-18T15:14:56.251Z,17.60
2018-05-18T15:17:22.463Z,22.20
2018-05-18T15:19:48.683Z,22.60
2018-05-18T15:22:14.931Z,20.70
2018-05-18T15:24:41.886Z,17.77
2018-05-18T15:27:08.155Z,22.23
2018-05-18T15:29:34.412Z,22.87
2018-05-18T15:32:00.666Z,21.43
2018-05-18T15:34:27.645Z,27.70
2018-05-18T15:36:53.920Z,18.40
2018-05-18T15:39:20.159Z,23.07
2018-05-18T15:41:46.428Z,24.00
2018-05-18T15:44:12.677Z,22.23
2018-05-18T15:46:38.939Z,20.73
2018-05-18T15:49:05.234Z,20.87
2018-05-18T15:51:31.479Z,19.57
2018-05-18T15:53:57.713Z,21.80
2018-05-18T15:56:23.943Z,14.73
2018-05-18T15:58:50.193Z,19.90
2018-05-18T16:01:16.404Z,21.87
2018-05-18T16:03:42.659Z,22.93
2018-05-18T16:06:08.896Z,19.33
2018-05-18T16:08:35.140Z,19.47
2018-05-18T16:11:01.362Z,17.57
2018-05-18T16:13:27.707Z,22.27
2018-05-18T16:15:53.938Z,21.20
2018-05-18T16:18:20.173Z,20.73
2018-05-18T16:20:46.407Z,18.90
2018-05-18T16:23:13.404Z,20.27
2018-05-18T16:25:39.656Z,19.53
2018-05-18T16:28:05.934Z,18.40
2018-05-18T16:30:32.201Z,13.93
2018-05-18T16:32:58.428Z,17.60
2018-05-18T16:35:25.430Z,16.03
2018-05-18T16:37:51.668Z,17.47
2018-05-18T16:40:17.898Z,17.07
2018-05-18T16:42:44.150Z,15.30
2018-05-18T16:45:10.378Z,18.43
2018-05-18T16:47:36.636Z,14.50
2018-05-18T16:50:02.906Z,16.57
2018-05-18T16:52:29.124Z,14.80
2018-05-18T16:54:56.146Z,13.07
2018-05-18T16:57:22.429Z,23.73
2018-05-18T16:59:48.655Z,16.70
2018-05-18T17:02:15.626Z,16.27
2018-05-18T17:04:42.638Z,19.57
2018-05-18T17:07:08.874Z,18.03
2018-05-18T17:09:35.846Z,17.93
2018-05-18T17:12:02.848Z,13.07
2018-05-18T17:14:29.069Z,16.37
2018-05-18T17:16:55.293Z,22.17
2018-05-18T17:19:21.643Z,20.57
2018-05-18T17:21:47.865Z,16.80
2018-05-18T17:24:14.091Z,20.07
2018-05-18T17:26:41.082Z,23.23
2018-05-18T17:29:07.325Z,19.87
2018-05-18T17:31:33.595Z,22.70
2018-05-18T17:33:59.839Z,26.27
2018-05-18T17:36:26.069Z,27.40
2018-05-18T17:38:52.290Z,16.00
2018-05-18T17:41:18.549Z,24.03
2018-05-18T17:43:44.822Z,21.93
2018-05-18T17:46:11.839Z,16.10
2018-05-18T17:48:38.131Z,23.93
2018-05-18T17:51:05.119Z,23.40
2018-05-18T17:53:31.358Z,20.50
2018-05-18T17:55:57.614Z,15.63
2018-05-18T17:58:23.847Z,18.27
2018-05-18T18:00:50.076Z,16.50
2018-05-18T18:03:16.361Z,18.37
2018-05-18T18:05:42.585Z,20.53
2018-05-18T18:08:08.868Z,23.63
2018-05-18T18:10:35.850Z,29.63
2018-05-18T18:13:02.091Z,27.37
2018-05-18T18:15:28.542Z,21.13
2018-05-18T18:17:54.778Z,26.60
2018-05-18T18:20:21.008Z,17.40
2018-05-18T18:22:47.255Z,32.83
2018-05-18T18:25:13.615Z,23.07
2018-05-18T18:27:39.846Z,18.20
2018-05-18T18:30:06.134Z,21.40
2018-05-18T18:34:56.968Z,15.63
2018-05-18T18:37:23.204Z,22.23
2018-05-18T18:39:49.469Z,21.80
2018-05-18T18:42:15.702Z,14.37
2018-05-18T18:44:42.112Z,22.33
2018-05-18T18:47:08.378Z,22.37
2018-05-18T18:49:34.685Z,28.90
2018-05-18T18:52:00.986Z,24.40
2018-05-18T18:54:27.205Z,22.67
2018-05-18T18:56:53.493Z,22.23
2018-05-18T18:59:20.450Z,18.13
2018-05-18T19:01:46.683Z,13.60
2018-05-18T19:04:13.029Z,22.27
2018-05-18T19:06:40.025Z,17.83
2018-05-18T19:09:06.301Z,18.50
2018-05-18T19:11:32.676Z,19.33
2018-05-18T19:13:59.663Z,20.30
2018-05-18T19:16:25.927Z,19.17
2018-05-18T19:18:52.206Z,20.67
2018-05-18T19:21:19.215Z,21.80
2018-05-18T19:23:45.458Z,22.87
2018-05-18T19:26:11.828Z,24.20
2018-05-18T19:28:38.123Z,17.37
2018-05-18T19:31:04.398Z,16.40
2018-05-18T19:33:30.675Z,21.17
2018-05-18T19:35:56.936Z,23.93
2018-05-18T19:38:23.182Z,18.53
2018-05-18T19:40:49.471Z,29.70
2018-05-18T19:43:15.751Z,25.27
2018-05-18T19:45:42.270Z,24.00
2018-05-18T19:48:08.575Z,40.33
2018-05-18T19:50:34.893Z,33.00
2018-05-18T19:53:01.189Z,21.00
2018-05-18T19:55:27.475Z,32.20
2018-05-18T19:57:53.743Z,28.17
2018-05-18T20:00:20.061Z,27.80
2018-05-18T20:02:53.436Z,25.33
2018-05-18T20:05:19.717Z,19.23
2018-05-18T20:07:45.991Z,32.13
2018-05-18T20:10:19.198Z,25.90
2018-05-18T20:12:45.510Z,25.27
2018-05-18T20:15:11.768Z,24.60
2018-05-18T20:17:38.073Z,21.00
2018-05-18T20:20:04.372Z,18.53
2018-05-18T20:22:30.624Z,22.40
2018-05-18T20:24:56.914Z,21.47
2018-05-18T20:27:23.166Z,22.33
2018-05-18T20:29:49.422Z,25.63
2018-05-18T20:32:15.707Z,23.03
2018-05-18T20:34:42.736Z,20.70
2018-05-18T20:37:08.986Z,18.27
2018-05-18T20:39:35.250Z,15.37
2018-05-18T20:42:02.250Z,19.37
2018-05-18T20:44:28.526Z,19.90
2018-05-18T20:46:54.904Z,13.50
2018-05-18T20:49:21.880Z,16.73
2018-05-18T20:51:48.206Z,12.00
2018-05-18T20:54:14.392Z,16.77
2018-05-18T20:56:40.788Z,20.10
2018-05-18T20:59:07.027Z,15.70
2018-05-18T21:01:34.027Z,16.97
2018-05-18T21:04:00.261Z,15.10
2018-05-18T21:06:26.483Z,20.93
2018-05-18T21:08:52.731Z,12.23
2018-05-18T21:11:18.965Z,17.73
2018-05-18T21:13:45.221Z,16.00
2018-05-18T21:16:11.469Z,21.73
2018-05-18T21:18:37.707Z,12.80
2018-05-18T21:21:03.930Z,19.43
2018-05-18T21:23:30.188Z,16.77
2018-05-18T21:25:56.424Z,18.07
2018-05-18T21:28:22.645Z,19.20
2018-05-18T21:30:48.898Z,13.63
2018-05-18T21:33:15.173Z,18.83
2018-05-18T21:35:41.432Z,17.27
2018-05-18T21:38:07.691Z,17.97
2018-05-18T21:40:33.947Z,23.40
2018-05-18T21:43:00.175Z,19.07
2018-05-18T21:45:27.213Z,19.50
2018-05-18T21:47:53.561Z,17.73
2018-05-18T21:50:20.536Z,18.10
2018-05-18T21:52:46.789Z,21.10
2018-05-18T21:55:13.006Z,18.30
2018-05-18T21:57:39.974Z,16.10
2018-05-18T22:00:06.213Z,15.17
2018-05-18T22:02:33.179Z,16.50
2018-05-18T22:04:59.403Z,15.43
2018-05-18T22:07:26.393Z,15.07
2018-05-18T22:09:52.638Z,14.20
2018-05-18T22:12:18.875Z,14.37
2018-05-18T22:14:45.098Z,16.53
2018-05-18T22:17:11.345Z,12.47
2018-05-18T22:19:37.575Z,11.10
2018-05-18T22:22:03.868Z,11.53
2018-05-18T22:24:30.103Z,15.83
2018-05-18T22:26:56.336Z,15.80
2018-05-18T22:29:22.578Z,17.73
2018-05-18T22:31:48.820Z,13.07
2018-05-18T22:34:15.098Z,9.27
2018-05-18T22:36:41.336Z,11.77
2018-05-18T22:39:07.570Z,10.70
2018-05-18T22:41:33.819Z,10.30
2018-05-18T22:44:00.080Z,13.00
2018-05-18T22:46:27.062Z,11.93
2018-05-18T22:48:53.806Z,14.80
2018-05-18T22:51:20.054Z,12.00
2018-05-18T22:53:46.305Z,11.37
2018-05-18T22:56:12.524Z,11.23
2018-05-18T22:58:38.769Z,11.33
2018-05-18T23:01:05.037Z,10.50
2018-05-18T23:03:31.260Z,15.00
2018-05-18T23:05:57.506Z,11.13
2018-05-18T23:08:23.734Z,11.60
2018-05-18T23:10:49.998Z,16.30
2018-05-18T23:13:16.250Z,15.63
2018-05-18T23:15:42.476Z,12.73
2018-05-18T23:18:08.717Z,13.97
2018-05-18T23:20:34.950Z,13.30
2018-05-18T23:23:01.187Z,14.70
2018-05-18T23:25:27.420Z,12.00
2018-05-18T23:27:53.654Z,13.53
2018-05-18T23:30:19.885Z,15.13
2018-05-18T23:32:46.108Z,19.13
2018-05-18T23:35:13.081Z,16.30
2018-05-18T23:37:39.317Z,15.93
2018-05-18T23:40:06.299Z,14.33
2018-05-18T23:42:32.532Z,15.33
2018-05-18T23:44:58.767Z,13.40
2018-05-18T23:47:31.949Z,13.27
2018-05-18T23:49:59.084Z,14.67
2018-05-18T23:52:25.317Z,12.27
2018-05-18T23:54:51.543Z,11.77
2018-05-18T23:57:17.754Z,16.07
2018-05-18T23:59:44.052Z,16.10
